Time;durP1;ratioP1;P1;durP2;ratioP2;P2;SDS_P1;SDS_P2;PMS_P1;PMS_P2;Temp;Humidity;BMP_temperature;BMP_pressure;BME280_temperature;BME280_humidity;BME280_pressure;Samples;Min_cycle;Max_cycle;Signal;HPM_P1;HPM_P2
2021/04/15 00:00:56;;;;;;;2.40;1.20;;;3.90;99.90;;;;;;5094861;28;20462;-53
2021/04/15 00:03:25;;;;;;;2.20;1.20;;;3.90;99.90;;;;;;5095335;28;20421;-53
2021/04/15 00:05:52;;;;;;;3.00;1.40;;;3.80;99.90;;;;;;5095135;28;20510;-48
2021/04/15 00:08:20;;;;;;;2.50;1.40;;;3.60;99.90;;;;;;5093839;28;20457;-53
2021/04/15 00:10:50;;;;;;;1.60;1.20;;;3.60;99.90;;;;;;5095069;28;20422;-51
2021/04/15 00:13:19;;;;;;;1.60;1.10;;;3.60;99.90;;;;;;5095000;28;20523;-46
2021/04/15 00:15:46;;;;;;;2.20;1.40;;;3.50;99.90;;;;;;5094702;28;20503;-51
2021/04/15 00:18:13;;;;;;;2.13;1.40;;;3.50;99.90;;;;;;5094878;28;20516;-50
2021/04/15 00:20:39;;;;;;;2.40;1.40;;;3.60;99.90;;;;;;5094875;28;20523;-51
2021/04/15 00:23:06;;;;;;;2.92;1.40;;;3.60;99.90;;;;;;5095071;28;20452;-48
2021/04/15 00:25:32;;;;;;;3.05;1.65;;;3.70;99.90;;;;;;5095077;28;20461;-54
2021/04/15 00:27:59;;;;;;;2.90;1.90;;;3.70;99.90;;;;;;5093534;28;20517;-52
2021/04/15 00:30:26;;;;;;;2.33;1.40;;;3.70;99.90;;;;;;5094277;28;20487;-52
2021/04/15 00:32:53;;;;;;;3.43;1.50;;;3.80;99.90;;;;;;5092465;28;20500;-51
2021/04/15 00:35:21;;;;;;;2.28;1.30;;;3.90;99.90;;;;;;5092776;28;20505;-51
2021/04/15 00:37:48;;;;;;;2.45;1.60;;;3.90;99.90;;;;;;5093461;28;20655;-52
2021/04/15 00:40:18;;;;;;;2.08;1.33;;;3.90;99.90;;;;;;5093343;28;20417;-50
2021/04/15 00:42:45;;;;;;;2.97;1.52;;;3.70;99.90;;;;;;5093134;28;20455;-53
2021/04/15 00:45:14;;;;;;;2.53;1.30;;;3.70;99.90;;;;;;5093118;28;20481;-51
2021/04/15 00:47:43;;;;;;;2.10;1.42;;;3.50;99.90;;;;;;5093182;28;20441;-51
2021/04/15 00:50:14;;;;;;;2.20;1.40;;;3.40;99.90;;;;;;5094493;28;20683;-51
2021/04/15 00:52:48;;;;;;;2.90;1.50;;;3.40;99.90;;;;;;5094108;28;20487;-51
2021/04/15 00:55:18;;;;;;;2.40;1.42;;;3.40;99.90;;;;;;5094703;28;20425;-51
2021/04/15 00:57:48;;;;;;;2.55;1.40;;;3.40;99.90;;;;;;5094585;28;20476;-52
2021/04/15 01:00:17;;;;;;;2.72;1.40;;;3.50;99.90;;;;;;5093546;28;20425;-51
2021/04/15 01:02:45;;;;;;;2.70;1.40;;;3.40;99.90;;;;;;5094210;28;20871;-50
2021/04/15 01:05:15;;;;;;;2.45;1.40;;;3.30;99.90;;;;;;5093980;28;20500;-53
2021/04/15 01:07:41;;;;;;;2.70;1.30;;;3.10;99.90;;;;;;5094231;28;20521;-49
2021/04/15 01:10:09;;;;;;;3.97;1.60;;;3.10;99.90;;;;;;5094844;28;20437;-51
2021/04/15 01:13:08;;;;;;;3.37;2.00;;;3.00;99.90;;;;;;5094258;28;20516;-49
2021/04/15 01:15:58;;;;;;;2.92;1.70;;;3.00;99.90;;;;;;5093677;28;20441;-50
2021/04/15 01:18:31;;;;;;;3.03;1.90;;;3.00;99.90;;;;;;5095299;28;20422;-50
2021/04/15 01:21:28;;;;;;;2.72;1.80;;;3.00;99.90;;;;;;5097704;28;20424;-50
2021/04/15 01:24:00;;;;;;;3.03;1.92;;;3.10;99.90;;;;;;5097918;28;20536;-50
2021/04/15 01:26:53;;;;;;;3.50;2.20;;;3.10;99.90;;;;;;5097800;28;20782;-47
2021/04/15 01:29:26;;;;;;;3.40;2.00;;;3.20;99.90;;;;;;5096468;28;20422;-50
2021/04/15 01:32:07;;;;;;;4.68;2.10;;;3.20;99.90;;;;;;5096973;28;20429;-52
2021/04/15 01:34:41;;;;;;;2.95;1.90;;;3.20;99.90;;;;;;5097254;28;20517;-53
2021/04/15 01:37:14;;;;;;;3.95;2.20;;;3.10;99.90;;;;;;5097722;28;20779;-53
2021/04/15 01:39:45;;;;;;;3.90;2.30;;;3.10;99.90;;;;;;5097428;28;20457;-51
2021/04/15 01:42:18;;;;;;;3.30;2.10;;;2.90;99.90;;;;;;5097918;28;20518;-52
2021/04/15 01:44:50;;;;;;;4.78;2.30;;;2.90;99.90;;;;;;5097364;28;20414;-52
2021/04/15 01:47:22;;;;;;;3.25;2.00;;;2.90;99.90;;;;;;5097265;28;20436;-49
2021/04/15 01:49:53;;;;;;;3.30;2.00;;;2.90;99.90;;;;;;5096281;28;20445;-50
2021/04/15 01:52:20;;;;;;;3.33;1.80;;;2.90;99.90;;;;;;5095725;28;20484;-53
2021/04/15 01:54:54;;;;;;;3.22;2.08;;;2.90;99.90;;;;;;5095458;28;20557;-50
2021/04/15 01:57:27;;;;;;;3.08;1.90;;;2.90;99.90;;;;;;5094771;28;20964;-47
2021/04/15 02:00:01;;;;;;;3.63;2.00;;;3.00;99.90;;;;;;5095129;28;20456;-49
2021/04/15 02:02:35;;;;;;;4.35;2.00;;;3.00;99.90;;;;;;5094895;28;20909;-49
2021/04/15 02:05:08;;;;;;;2.53;1.90;;;3.00;99.90;;;;;;5096535;28;20417;-50
2021/04/15 02:07:39;;;;;;;2.75;2.17;;;3.10;99.90;;;;;;5096906;28;20429;-47
2021/04/15 02:10:10;;;;;;;3.50;2.00;;;3.30;99.90;;;;;;5097301;28;20471;-51
2021/04/15 02:12:40;;;;;;;2.90;2.10;;;3.20;99.90;;;;;;5097020;28;20533;-54
2021/04/15 02:15:14;;;;;;;3.80;1.70;;;2.90;99.90;;;;;;5096887;28;20436;-49
2021/04/15 02:17:42;;;;;;;2.78;1.80;;;2.70;99.90;;;;;;5096338;28;20430;-53
2021/04/15 02:20:16;;;;;;;3.80;2.15;;;2.60;99.90;;;;;;5095726;28;20506;-47
2021/04/15 02:22:52;;;;;;;3.17;1.87;;;2.50;99.90;;;;;;5095210;28;20430;-48
2021/04/15 02:25:25;;;;;;;2.65;1.98;;;2.60;99.90;;;;;;5096221;28;20492;-48
2021/04/15 02:28:00;;;;;;;3.90;1.90;;;2.60;99.90;;;;;;5097260;28;20460;-46
2021/04/15 02:30:33;;;;;;;2.83;2.10;;;2.60;99.90;;;;;;5095954;28;20458;-50
2021/04/15 02:33:05;;;;;;;3.13;2.05;;;2.70;99.90;;;;;;5096274;28;20910;-50
2021/04/15 02:35:38;;;;;;;3.13;2.00;;;2.60;99.90;;;;;;5095619;28;20753;-50
2021/04/15 02:38:05;;;;;;;2.50;1.97;;;2.60;99.90;;;;;;5095388;28;20507;-48
2021/04/15 02:40:36;;;;;;;2.97;1.80;;;2.50;99.90;;;;;;5094721;28;20519;-51
2021/04/15 02:43:11;;;;;;;5.32;2.47;;;2.60;99.90;;;;;;5095029;28;20921;-50
2021/04/15 02:45:43;;;;;;;3.47;2.00;;;2.50;99.90;;;;;;5094627;28;20779;-51
2021/04/15 02:48:16;;;;;;;4.20;2.30;;;2.60;99.90;;;;;;5095556;28;20422;-51
2021/04/15 02:50:44;;;;;;;2.83;1.88;;;2.60;99.90;;;;;;5095848;28;20414;-54
2021/04/15 02:53:16;;;;;;;4.30;2.20;;;2.60;99.90;;;;;;5095911;28;20792;-49
2021/04/15 02:55:48;;;;;;;5.13;2.38;;;2.80;99.90;;;;;;5096236;28;20453;-50
2021/04/15 02:58:21;;;;;;;4.50;2.03;;;2.90;99.90;;;;;;5096056;28;20824;-51
2021/04/15 03:00:51;;;;;;;4.00;2.25;;;2.80;99.90;;;;;;5094667;28;20442;-47
2021/04/15 03:03:21;;;;;;;4.00;2.40;;;2.90;99.90;;;;;;5094755;28;20437;-52
2021/04/15 03:05:53;;;;;;;4.07;1.80;;;3.00;99.90;;;;;;5094575;28;20501;-52
2021/04/15 03:08:24;;;;;;;3.40;2.20;;;2.90;99.90;;;;;;5095117;28;20445;-50
2021/04/15 03:10:53;;;;;;;2.75;1.80;;;2.90;99.90;;;;;;5095042;28;20442;-46
2021/04/15 03:13:23;;;;;;;3.60;2.13;;;2.90;99.90;;;;;;5095191;28;20434;-49
2021/04/15 03:15:55;;;;;;;3.10;1.70;;;2.80;99.90;;;;;;5095318;28;20768;-51
2021/04/15 03:18:25;;;;;;;1.98;1.40;;;2.80;99.90;;;;;;5095952;28;20797;-48
2021/04/15 03:20:58;;;;;;;3.50;1.90;;;2.90;99.90;;;;;;5095511;28;20426;-49
2021/04/15 03:23:39;;;;;;;3.20;1.70;;;2.90;99.90;;;;;;5095670;28;20868;-51
2021/04/15 03:26:23;;;;;;;3.00;1.80;;;2.90;99.90;;;;;;5094361;28;20813;-48
2021/04/15 03:29:11;;;;;;;3.85;1.80;;;2.80;99.90;;;;;;5093837;28;20532;-52
2021/04/15 03:31:43;;;;;;;2.50;1.80;;;2.90;99.90;;;;;;5091588;28;20422;-50
2021/04/15 03:34:17;;;;;;;3.27;1.40;;;2.90;99.90;;;;;;5094389;28;20437;-52
2021/04/15 03:36:49;;;;;;;2.03;1.30;;;2.90;99.90;;;;;;5094156;28;20421;-49
2021/04/15 03:39:19;;;;;;;2.50;1.40;;;2.80;99.90;;;;;;5093206;28;20608;-51
2021/04/15 03:41:48;;;;;;;2.35;1.60;;;2.90;99.90;;;;;;5094108;28;20429;-51
2021/04/15 03:44:20;;;;;;;3.38;1.60;;;3.00;99.90;;;;;;5095328;28;20446;-49
2021/04/15 03:46:53;;;;;;;2.40;1.50;;;2.80;99.90;;;;;;5094950;28;20425;-50
2021/04/15 03:49:25;;;;;;;2.95;1.30;;;2.70;99.90;;;;;;5095225;28;20450;-48
2021/04/15 03:51:56;;;;;;;2.67;1.55;;;2.70;99.90;;;;;;5095241;28;20425;-50
2021/04/15 03:54:28;;;;;;;2.47;1.60;;;2.60;99.90;;;;;;5094671;28;20521;-50
2021/04/15 03:56:57;;;;;;;2.95;1.48;;;2.60;99.90;;;;;;5094736;28;20416;-50
2021/04/15 03:59:32;;;;;;;2.70;1.50;;;2.70;99.90;;;;;;5094672;28;20437;-47
2021/04/15 04:02:04;;;;;;;2.15;1.20;;;2.70;99.90;;;;;;5095217;28;20441;-49
2021/04/15 04:04:36;;;;;;;1.50;1.08;;;2.80;99.90;;;;;;5094238;28;20724;-48
2021/04/15 04:07:07;;;;;;;2.80;1.30;;;2.80;99.90;;;;;;5094648;28;20453;-48
2021/04/15 04:09:40;;;;;;;2.10;1.10;;;2.80;99.90;;;;;;5094931;28;20425;-50
2021/04/15 04:12:10;;;;;;;1.50;1.10;;;2.70;99.90;;;;;;5094612;28;20506;-52
2021/04/15 04:14:40;;;;;;;1.70;1.17;;;2.70;99.90;;;;;;5094662;28;20465;-51
2021/04/15 04:17:15;;;;;;;1.70;1.20;;;2.70;99.90;;;;;;5095362;28;20817;-54
2021/04/15 04:19:47;;;;;;;2.60;1.30;;;2.80;99.90;;;;;;5094458;28;20569;-53
2021/04/15 04:22:20;;;;;;;2.00;1.10;;;2.80;99.90;;;;;;5094497;28;20429;-54
2021/04/15 04:24:52;;;;;;;1.70;1.10;;;2.60;99.90;;;;;;5094842;28;20914;-47
2021/04/15 04:27:24;;;;;;;2.85;1.48;;;2.40;99.90;;;;;;5094410;28;20422;-53
2021/04/15 04:29:54;;;;;;;1.90;1.13;;;2.40;99.90;;;;;;5094569;28;20461;-49
2021/04/15 04:32:23;;;;;;;3.80;1.13;;;2.40;99.90;;;;;;5094778;28;20516;-49
2021/04/15 04:34:53;;;;;;;2.00;1.20;;;2.50;99.90;;;;;;5094511;28;20948;-49
2021/04/15 04:37:20;;;;;;;1.70;1.15;;;2.50;99.90;;;;;;5094779;28;20450;-50
2021/04/15 04:39:47;;;;;;;2.45;1.50;;;2.60;99.90;;;;;;5093973;28;20460;-51
2021/04/15 04:42:24;;;;;;;2.65;1.30;;;2.50;99.90;;;;;;5094931;28;20426;-52
2021/04/15 04:44:54;;;;;;;2.20;1.25;;;2.50;99.90;;;;;;5094724;28;20852;-50
2021/04/15 04:47:43;;;;;;;2.10;1.40;;;2.50;99.90;;;;;;5094186;28;20453;-52
2021/04/15 04:50:20;;;;;;;1.63;1.10;;;2.60;99.90;;;;;;5093870;28;20497;-53
2021/04/15 04:52:47;;;;;;;1.70;1.00;;;2.60;99.90;;;;;;5095001;28;20433;-52
2021/04/15 04:55:31;;;;;;;1.73;1.17;;;2.70;99.90;;;;;;5098341;28;20517;-51
2021/04/15 04:57:59;;;;;;;2.30;1.20;;;2.70;99.90;;;;;;5098312;28;20540;-53
2021/04/15 05:00:26;;;;;;;2.13;1.20;;;2.70;99.90;;;;;;5097664;28;20760;-52
2021/04/15 05:02:55;;;;;;;1.70;1.20;;;2.80;99.90;;;;;;5096759;28;20775;-52
2021/04/15 05:05:24;;;;;;;2.10;1.10;;;2.70;99.90;;;;;;5096258;28;20804;-50
2021/04/15 05:07:57;;;;;;;2.63;1.20;;;2.80;99.90;;;;;;5097254;28;20970;-53
2021/04/15 05:10:25;;;;;;;1.60;1.10;;;2.80;99.90;;;;;;5096588;28;20460;-49
2021/04/15 05:13:06;;;;;;;2.40;1.00;;;2.80;99.90;;;;;;5095937;28;20721;-50
2021/04/15 05:15:33;;;;;;;2.40;1.20;;;2.80;99.90;;;;;;5097096;28;20409;-48
2021/04/15 05:18:00;;;;;;;3.20;1.05;;;2.80;99.90;;;;;;5096279;28;20583;-49
2021/04/15 05:20:27;;;;;;;1.70;0.93;;;2.80;99.90;;;;;;5085160;28;20423;-52
2021/04/15 05:22:59;;;;;;;2.07;0.93;;;2.70;99.90;;;;;;5074812;28;20427;-53
2021/04/15 05:25:34;;;;;;;1.50;1.00;;;2.50;99.90;;;;;;5079040;28;20505;-51
2021/04/15 05:28:02;;;;;;;1.30;1.00;;;2.50;99.90;;;;;;5095604;28;20471;-50
2021/04/15 05:30:40;;;;;;;2.20;1.10;;;2.40;99.90;;;;;;5095717;28;20430;-52
2021/04/15 05:33:12;;;;;;;1.60;1.10;;;2.40;99.90;;;;;;5096250;28;20495;-53
2021/04/15 05:35:42;;;;;;;1.58;0.90;;;2.50;99.90;;;;;;5095748;28;20457;-54
2021/04/15 05:38:11;;;;;;;2.40;1.00;;;2.70;99.90;;;;;;5094741;28;20461;-54
2021/04/15 05:40:37;;;;;;;1.23;0.90;;;2.90;99.90;;;;;;5092404;28;20425;-50
2021/04/15 05:43:34;;;;;;;2.05;1.00;;;3.10;99.90;;;;;;5092827;28;20418;-52
2021/04/15 05:46:07;;;;;;;1.50;0.95;;;3.20;99.90;;;;;;5092456;28;20422;-51
2021/04/15 05:48:37;;;;;;;1.20;1.00;;;3.10;99.90;;;;;;5095968;28;20449;-52
2021/04/15 05:51:09;;;;;;;3.70;0.90;;;3.10;99.90;;;;;;5096748;28;20852;-49
2021/04/15 05:53:40;;;;;;;4.97;1.20;;;3.10;99.90;;;;;;5096472;28;20430;-53
2021/04/15 05:56:11;;;;;;;1.50;1.00;;;3.10;99.90;;;;;;5095362;28;20450;-53
2021/04/15 05:58:46;;;;;;;1.85;0.95;;;3.00;99.90;;;;;;5086422;28;20459;-49
2021/04/15 06:01:18;;;;;;;2.13;1.00;;;3.00;99.90;;;;;;5073636;28;20502;-51
2021/04/15 06:03:54;;;;;;;4.93;2.10;;;3.00;99.90;;;;;;5078109;28;20455;-48
2021/04/15 06:06:26;;;;;;;1.95;0.90;;;3.00;99.90;;;;;;5094838;28;20421;-48
2021/04/15 06:08:53;;;;;;;3.67;0.93;;;3.00;99.90;;;;;;5095666;28;20486;-52
2021/04/15 06:11:55;;;;;;;1.88;1.00;;;3.00;99.90;;;;;;5096349;28;20867;-49
2021/04/15 06:14:27;;;;;;;1.40;1.00;;;3.20;99.90;;;;;;5045278;28;20875;-52
2021/04/15 06:17:27;;;;;;;3.50;0.90;;;3.30;99.90;;;;;;5093891;28;20794;-51
2021/04/15 06:19:59;;;;;;;1.43;0.93;;;3.50;99.90;;;;;;5010427;28;20994;-50
2021/04/15 06:22:28;;;;;;;1.40;0.90;;;3.60;99.90;;;;;;5077851;28;20848;-50
2021/04/15 06:25:02;;;;;;;1.63;1.27;;;3.60;99.90;;;;;;5093435;28;20471;-54
2021/04/15 06:27:29;;;;;;;3.00;1.10;;;3.40;99.90;;;;;;5093308;28;20748;-53
2021/04/15 06:30:00;;;;;;;2.30;1.00;;;3.30;99.90;;;;;;5094658;28;20779;-53
2021/04/15 06:32:33;;;;;;;1.30;0.90;;;3.30;99.90;;;;;;5093597;28;20433;-53
2021/04/15 06:35:00;;;;;;;2.40;1.00;;;3.10;99.90;;;;;;5093923;28;20485;-49
2021/04/15 06:37:35;;;;;;;2.58;1.10;;;3.00;99.90;;;;;;5092583;28;20512;-54
2021/04/15 06:40:38;;;;;;;2.25;0.98;;;3.20;99.90;;;;;;5092024;28;20425;-54
2021/04/15 06:43:40;;;;;;;2.15;1.10;;;3.10;99.90;;;;;;5092275;28;20479;-54
2021/04/15 06:46:16;;;;;;;1.65;1.00;;;2.90;99.90;;;;;;5078974;28;20429;-49
2021/04/15 06:49:16;;;;;;;2.90;1.10;;;3.00;99.90;;;;;;5091189;28;20429;-54
2021/04/15 06:51:49;;;;;;;1.50;1.10;;;3.20;99.90;;;;;;5078733;28;20492;-51
2021/04/15 06:54:33;;;;;;;2.00;0.98;;;3.50;99.90;;;;;;5093175;28;20437;-51
2021/04/15 06:57:35;;;;;;;2.08;1.00;;;3.70;99.90;;;;;;5092433;28;20506;-48
2021/04/15 07:00:12;;;;;;;1.92;1.20;;;4.10;99.90;;;;;;5090974;28;20422;-53
2021/04/15 07:02:51;;;;;;;3.40;1.10;;;4.10;99.90;;;;;;5088820;28;20998;-50
2021/04/15 07:05:20;;;;;;;1.90;1.10;;;4.30;99.90;;;;;;5089864;28;20453;-52
2021/04/15 07:07:52;;;;;;;1.40;1.10;;;4.40;99.90;;;;;;5089917;28;20817;-51
2021/04/15 07:10:50;;;;;;;2.80;0.93;;;4.20;99.90;;;;;;5087096;28;20741;-50
2021/04/15 07:13:40;;;;;;;1.60;1.10;;;4.00;99.90;;;;;;5090738;28;20461;-54
2021/04/15 07:16:32;;;;;;;1.40;1.00;;;4.10;99.90;;;;;;5073535;28;20777;-53
2021/04/15 07:19:29;;;;;;;2.47;1.10;;;4.50;99.90;;;;;;5088285;28;21133;-50
2021/04/15 07:22:21;;;;;;;2.08;1.10;;;4.90;99.90;;;;;;5092727;28;20453;-52
2021/04/15 07:25:07;;;;;;;2.78;1.10;;;5.00;99.90;;;;;;5092529;28;20743;-52
2021/04/15 07:28:04;;;;;;;2.35;1.20;;;5.00;99.90;;;;;;5092789;28;20432;-52
2021/04/15 07:30:47;;;;;;;4.50;1.40;;;5.10;99.90;;;;;;5086553;28;20744;-49
2021/04/15 07:33:46;;;;;;;2.50;1.20;;;4.90;99.90;;;;;;5092735;28;20421;-53
2021/04/15 07:36:34;;;;;;;1.70;1.00;;;4.80;99.90;;;;;;5091977;28;20449;-53
2021/04/15 07:39:22;;;;;;;1.50;0.90;;;5.10;99.90;;;;;;5091621;28;20425;-53
2021/04/15 07:42:04;;;;;;;3.40;1.00;;;5.30;99.90;;;;;;5090500;28;20898;-53
2021/04/15 07:44:34;;;;;;;1.70;0.80;;;5.50;99.90;;;;;;5092284;28;20826;-55
2021/04/15 07:47:23;;;;;;;2.20;0.82;;;5.60;99.90;;;;;;5092717;28;20425;-57
2021/04/15 07:50:22;;;;;;;1.40;0.85;;;5.60;99.90;;;;;;5088306;28;20510;-54
2021/04/15 07:53:29;;;;;;;1.70;0.90;;;5.60;99.90;;;;;;5091079;28;20787;-54
2021/04/15 07:56:35;;;;;;;1.83;0.90;;;5.40;99.90;;;;;;5085272;28;20516;-55
2021/04/15 07:59:21;;;;;;;1.43;0.90;;;5.40;99.90;;;;;;5008896;28;20432;-56
2021/04/15 08:02:09;;;;;;;1.47;0.90;;;5.40;99.90;;;;;;5083419;28;20885;-53
2021/04/15 08:05:12;;;;;;;8.68;5.90;;;5.60;99.90;;;;;;5091814;28;20418;-54
2021/04/15 08:08:00;;;;;;;3.47;1.30;;;5.80;99.90;;;;;;5092588;28;21018;-61
2021/04/15 08:10:58;;;;;;;3.40;0.90;;;6.00;99.90;;;;;;5092377;28;20421;-57
2021/04/15 08:14:04;;;;;;;2.80;1.10;;;6.10;99.90;;;;;;5091639;28;20449;-57
2021/04/15 08:16:40;;;;;;;3.07;1.00;;;6.30;99.90;;;;;;5009304;28;20489;-55
2021/04/15 08:19:32;;;;;;;1.80;1.00;;;6.30;99.90;;;;;;5082304;28;20496;-57
2021/04/15 08:22:06;;;;;;;2.10;0.90;;;6.20;99.90;;;;;;5061455;28;20421;-58
2021/04/15 08:24:40;;;;;;;1.35;0.90;;;6.30;99.90;;;;;;5091296;28;20464;-58
2021/04/15 08:27:44;;;;;;;1.83;1.00;;;6.50;99.90;;;;;;5091444;28;20456;-57
2021/04/15 08:30:44;;;;;;;1.30;0.90;;;6.50;99.90;;;;;;5093531;28;20418;-56
2021/04/15 08:33:49;;;;;;;2.00;1.00;;;6.40;99.90;;;;;;5094077;28;20775;-64
2021/04/15 08:36:26;;;;;;;1.63;1.10;;;6.60;99.90;;;;;;5082926;28;20421;-65
2021/04/15 08:39:03;;;;;;;2.17;1.10;;;6.80;99.90;;;;;;5087869;28;20946;-66
2021/04/15 08:41:41;;;;;;;1.65;0.85;;;6.90;99.90;;;;;;5085472;28;20421;-66
2021/04/15 08:44:32;;;;;;;2.53;0.90;;;7.10;99.90;;;;;;5095526;28;20501;-66
2021/04/15 08:47:09;;;;;;;2.30;0.90;;;7.20;99.90;;;;;;5094504;28;20460;-67
2021/04/15 08:49:45;;;;;;;1.67;1.00;;;7.30;99.90;;;;;;5091600;28;20493;-63
2021/04/15 08:52:32;;;;;;;2.05;1.00;;;7.10;99.90;;;;;;5090157;28;20462;-63
2021/04/15 08:55:07;;;;;;;2.10;1.00;;;7.20;99.90;;;;;;5076756;28;20469;-65
2021/04/15 08:57:42;;;;;;;1.90;0.90;;;7.30;99.90;;;;;;5082444;28;20736;-60
2021/04/15 09:00:22;;;;;;;1.40;1.00;;;7.50;99.90;;;;;;5092687;28;20430;-60
2021/04/15 09:03:00;;;;;;;1.92;1.00;;;7.70;99.90;;;;;;5087927;28;20537;-60
2021/04/15 09:05:35;;;;;;;1.98;0.90;;;7.90;99.90;;;;;;5077940;28;20738;-60
2021/04/15 09:08:16;;;;;;;1.70;0.90;;;8.10;99.90;;;;;;5072989;28;20423;-60
2021/04/15 09:10:52;;;;;;;1.30;0.90;;;8.10;99.90;;;;;;5073360;28;20815;-60
2021/04/15 09:13:32;;;;;;;1.40;0.93;;;8.30;99.90;;;;;;5092034;28;20431;-59
2021/04/15 09:16:28;;;;;;;1.10;0.80;;;8.30;99.90;;;;;;5094328;28;20506;-59
2021/04/15 09:19:02;;;;;;;1.90;0.85;;;8.30;99.90;;;;;;5094625;28;20889;-60
2021/04/15 09:21:48;;;;;;;1.50;0.90;;;8.40;99.90;;;;;;5079081;28;20811;-60
2021/04/15 09:24:22;;;;;;;1.00;0.80;;;8.40;99.90;;;;;;5073928;28;20490;-60
2021/04/15 09:27:14;;;;;;;1.88;0.90;;;8.40;99.90;;;;;;5073332;28;20839;-60
2021/04/15 09:29:54;;;;;;;1.20;0.85;;;8.50;99.90;;;;;;5072072;28;20431;-60
2021/04/15 09:32:27;;;;;;;1.58;0.88;;;8.60;99.90;;;;;;5072985;28;20884;-60
2021/04/15 09:35:18;;;;;;;1.40;1.00;;;8.80;99.90;;;;;;5071713;28;20467;-60
2021/04/15 09:38:23;;;;;;;1.60;0.80;;;9.00;99.90;;;;;;5072415;28;20435;-60
2021/04/15 09:41:32;;;;;;;1.00;0.70;;;9.10;99.90;;;;;;5072402;28;20485;-61
2021/04/15 09:44:11;;;;;;;0.93;0.70;;;8.70;99.90;;;;;;5073456;28;20513;-60
2021/04/15 09:46:50;;;;;;;1.10;0.60;;;8.80;99.90;;;;;;5073055;28;20475;-60
2021/04/15 09:49:43;;;;;;;2.00;0.60;;;8.90;99.90;;;;;;5073904;28;20489;-63
2021/04/15 09:52:45;;;;;;;1.70;0.70;;;8.80;99.90;;;;;;5072997;28;20821;-64
2021/04/15 09:55:29;;;;;;;1.60;0.70;;;8.80;99.90;;;;;;5073705;28;20459;-64
2021/04/15 09:58:08;;;;;;;1.23;0.70;;;8.90;99.90;;;;;;5078631;28;20497;-65
2021/04/15 10:00:38;;;;;;;1.30;0.65;;;9.10;99.90;;;;;;5094043;28;20414;-64
2021/04/15 10:03:14;;;;;;;0.83;0.60;;;9.20;99.90;;;;;;5093018;28;20516;-66
2021/04/15 10:05:59;;;;;;;1.10;0.70;;;9.70;99.90;;;;;;5094445;28;20686;-66
2021/04/15 10:08:36;;;;;;;1.00;0.60;;;10.10;99.90;;;;;;5095295;28;20453;-66
2021/04/15 10:11:16;;;;;;;0.80;0.50;;;9.80;99.90;;;;;;5093453;28;20421;-66
2021/04/15 10:13:51;;;;;;;0.90;0.50;;;9.50;99.90;;;;;;5093554;28;20745;-66
2021/04/15 10:16:25;;;;;;;0.80;0.40;;;9.80;99.80;;;;;;5092822;28;20946;-65
2021/04/15 10:19:11;;;;;;;0.90;0.50;;;10.20;97.30;;;;;;5091918;28;20473;-65
2021/04/15 10:21:50;;;;;;;0.90;0.50;;;10.80;94.70;;;;;;5092751;28;20793;-64
2021/04/15 10:24:22;;;;;;;2.00;0.50;;;10.80;94.10;;;;;;5092158;28;20451;-68
2021/04/15 10:27:31;;;;;;;1.00;0.60;;;10.70;94.20;;;;;;5093622;28;20464;-69
2021/04/15 10:30:36;;;;;;;0.90;0.60;;;10.50;96.30;;;;;;5092835;28;20418;-69
2021/04/15 10:33:28;;;;;;;1.50;0.60;;;10.70;98.80;;;;;;5092495;28;20446;-69
2021/04/15 10:36:26;;;;;;;1.50;0.70;;;10.80;99.30;;;;;;5093396;28;20426;-69
2021/04/15 10:39:12;;;;;;;2.30;0.70;;;10.50;99.90;;;;;;5091768;28;20449;-69
2021/04/15 10:42:09;;;;;;;1.40;0.70;;;10.70;99.90;;;;;;5093962;28;20431;-70
2021/04/15 10:45:07;;;;;;;1.92;0.60;;;11.20;99.90;;;;;;5092989;28;20414;-69
2021/04/15 10:47:45;;;;;;;0.90;0.70;;;11.40;98.50;;;;;;5091778;28;20782;-70
2021/04/15 10:50:24;;;;;;;2.50;0.60;;;11.30;96.90;;;;;;5093689;28;20417;-71
2021/04/15 10:53:02;;;;;;;1.00;0.50;;;10.90;97.30;;;;;;5091915;28;20414;-70
2021/04/15 10:55:41;;;;;;;1.08;0.60;;;10.90;96.30;;;;;;5092823;28;20732;-71
2021/04/15 10:58:37;;;;;;;1.00;0.63;;;11.30;96.40;;;;;;5092884;28;20450;-69
2021/04/15 11:01:28;;;;;;;1.30;0.70;;;11.20;92.70;;;;;;5028681;28;20422;-69
2021/04/15 11:03:57;;;;;;;0.90;0.70;;;11.00;94.10;;;;;;5084101;28;20852;-69
2021/04/15 11:06:35;;;;;;;0.98;0.60;;;11.00;94.00;;;;;;5092026;28;20418;-69
2021/04/15 11:09:20;;;;;;;0.88;0.60;;;11.00;94.30;;;;;;5093724;28;20535;-69
2021/04/15 11:11:55;;;;;;;1.00;0.60;;;11.20;94.70;;;;;;5092586;28;20856;-69
2021/04/15 11:14:24;;;;;;;1.60;0.50;;;11.00;94.40;;;;;;5094128;28;20465;-71
2021/04/15 11:16:55;;;;;;;1.20;0.50;;;10.80;93.70;;;;;;5093391;28;20422;-71
2021/04/15 11:19:26;;;;;;;0.90;0.60;;;10.30;93.60;;;;;;5094574;28;20478;-71
2021/04/15 11:21:56;;;;;;;1.05;0.60;;;10.10;94.10;;;;;;5093233;28;20425;-69
2021/04/15 11:24:31;;;;;;;2.90;0.60;;;10.20;94.70;;;;;;5093623;28;20426;-70
2021/04/15 11:27:00;;;;;;;1.00;0.60;;;10.30;94.40;;;;;;5093839;28;20418;-71
2021/04/15 11:29:29;;;;;;;1.17;0.60;;;10.40;94.70;;;;;;5093604;28;20487;-71
2021/04/15 11:31:57;;;;;;;0.90;0.50;;;10.50;93.70;;;;;;5093469;28;20906;-68
2021/04/15 11:34:26;;;;;;;1.90;0.50;;;11.00;94.60;;;;;;5092915;28;20426;-70
2021/04/15 11:37:03;;;;;;;0.80;0.50;;;11.50;92.30;;;;;;5092065;28;20410;-70
2021/04/15 11:39:31;;;;;;;1.67;0.60;;;11.80;91.20;;;;;;5093349;28;20449;-70
2021/04/15 11:42:02;;;;;;;0.70;0.50;;;12.30;89.60;;;;;;5093431;28;20434;-67
2021/04/15 11:44:32;;;;;;;1.30;0.60;;;12.80;89.00;;;;;;5093214;28;20525;-71
2021/04/15 11:47:05;;;;;;;1.00;0.60;;;13.20;89.90;;;;;;5093095;28;20422;-71
2021/04/15 11:49:34;;;;;;;0.70;0.50;;;13.70;86.70;;;;;;5092469;28;20491;-70
2021/04/15 11:52:05;;;;;;;1.30;0.60;;;14.20;85.90;;;;;;5090912;28;20767;-71
2021/04/15 11:54:34;;;;;;;0.80;0.50;;;14.50;80.30;;;;;;5083242;28;20437;-70
2021/04/15 11:57:27;;;;;;;0.70;0.50;;;14.10;78.50;;;;;;5081589;28;20424;-71
2021/04/15 12:00:14;;;;;;;0.70;0.50;;;14.50;77.60;;;;;;5079750;28;20430;-72
2021/04/15 12:02:45;;;;;;;0.70;0.45;;;14.70;74.20;;;;;;5090015;28;20797;-69
2021/04/15 12:05:18;;;;;;;1.10;0.50;;;14.20;71.90;;;;;;5088595;28;20410;-70
2021/04/15 12:07:50;;;;;;;0.93;0.50;;;14.00;72.40;;;;;;5091115;28;20506;-68
2021/04/15 12:10:17;;;;;;;0.90;0.60;;;13.60;74.30;;;;;;5092268;28;20863;-70
2021/04/15 12:12:48;;;;;;;0.70;0.60;;;12.90;72.40;;;;;;5092108;28;20925;-69
2021/04/15 12:15:19;;;;;;;0.98;0.57;;;12.60;75.20;;;;;;5092614;28;20743;-69
2021/04/15 12:17:54;;;;;;;0.70;0.50;;;13.00;74.90;;;;;;5093073;28;20475;-68
2021/04/15 12:20:28;;;;;;;0.90;0.60;;;13.00;71.70;;;;;;5092511;28;20468;-68
2021/04/15 12:23:07;;;;;;;1.30;0.50;;;13.00;70.60;;;;;;5092255;28;20440;-69
2021/04/15 12:25:38;;;;;;;0.60;0.40;;;12.70;71.70;;;;;;5093295;28;20490;-69
2021/04/15 12:28:28;;;;;;;0.90;0.50;;;12.00;71.50;;;;;;5093592;28;20425;-69
2021/04/15 12:31:01;;;;;;;0.70;0.47;;;12.00;71.00;;;;;;5083086;28;20453;-68
2021/04/15 12:33:38;;;;;;;0.70;0.50;;;12.30;71.50;;;;;;5091613;28;20425;-68
2021/04/15 12:36:14;;;;;;;0.70;0.50;;;12.90;67.00;;;;;;5090429;28;20429;-62
2021/04/15 12:38:46;;;;;;;1.00;0.60;;;12.60;68.10;;;;;;5090000;28;20429;-62
2021/04/15 12:41:13;;;;;;;0.60;0.40;;;13.20;68.70;;;;;;5090836;28;20434;-61
2021/04/15 12:43:45;;;;;;;1.20;0.50;;;13.00;69.60;;;;;;5093316;28;20520;-65
2021/04/15 12:46:14;;;;;;;1.48;0.60;;;13.50;68.80;;;;;;5095075;28;20756;-67
2021/04/15 12:48:45;;;;;;;1.30;0.50;;;13.70;66.80;;;;;;5095612;28;20840;-67
2021/04/15 12:51:17;;;;;;;1.50;0.60;;;13.60;68.50;;;;;;5095161;28;20894;-70
2021/04/15 12:53:46;;;;;;;1.67;1.00;;;13.70;64.60;;;;;;5093370;28;20453;-63
2021/04/15 12:56:16;;;;;;;1.75;0.52;;;13.10;66.40;;;;;;5090824;28;20426;-63
2021/04/15 12:58:44;;;;;;;1.50;0.60;;;12.70;66.90;;;;;;5090614;28;20749;-64
2021/04/15 13:01:11;;;;;;;0.90;0.60;;;12.30;66.30;;;;;;5091823;28;20425;-64
2021/04/15 13:03:40;;;;;;;0.90;0.60;;;12.10;69.40;;;;;;5091626;28;20429;-63
2021/04/15 13:06:14;;;;;;;0.90;0.50;;;12.80;69.90;;;;;;5091790;28;20433;-63
2021/04/15 13:08:49;;;;;;;0.90;0.57;;;13.60;71.00;;;;;;5087712;28;20853;-63
2021/04/15 13:11:39;;;;;;;1.10;0.60;;;13.20;66.00;;;;;;5092238;28;20428;-63
2021/04/15 13:14:38;;;;;;;1.40;0.80;;;12.70;68.30;;;;;;5092596;28;20861;-63
2021/04/15 13:17:05;;;;;;;1.00;0.50;;;12.50;70.10;;;;;;5092416;28;20429;-63
2021/04/15 13:19:40;;;;;;;1.42;0.60;;;12.10;70.80;;;;;;5096900;28;20426;-64
2021/04/15 13:22:22;;;;;;;1.10;0.60;;;11.70;71.20;;;;;;5095117;28;20426;-64
2021/04/15 13:25:13;;;;;;;0.90;0.60;;;11.30;76.10;;;;;;5094257;28;20429;-64
2021/04/15 13:28:06;;;;;;;1.00;0.60;;;10.90;81.60;;;;;;5094910;28;20783;-64
2021/04/15 13:30:50;;;;;;;1.33;0.60;;;10.90;84.10;;;;;;5095230;28;20437;-64
2021/04/15 13:33:19;;;;;;;0.98;0.60;;;10.60;85.50;;;;;;5077021;28;20798;-64
2021/04/15 13:35:48;;;;;;;1.20;0.60;;;10.60;89.60;;;;;;5094540;28;20449;-64
2021/04/15 13:38:39;;;;;;;0.70;0.50;;;10.40;90.20;;;;;;5095792;28;20455;-64
2021/04/15 13:41:08;;;;;;;1.10;0.55;;;9.80;90.20;;;;;;5093037;28;20459;-68
2021/04/15 13:43:47;;;;;;;0.98;0.60;;;9.90;91.20;;;;;;5092513;28;20518;-64
2021/04/15 13:46:38;;;;;;;0.90;0.60;;;10.00;90.60;;;;;;5078848;28;20424;-67